sensor_id;sensor_type;location;lat;lon;timestamp;P1;durP1;ratioP1;P2;durP2;ratioP2
17424;SDS011;8830;50.978;5.058;2022-12-07T00:01:25;10.43;;;9.40;;
17424;SDS011;8830;50.978;5.058;2022-12-07T00:03:54;11.20;;;9.60;;
17424;SDS011;8830;50.978;5.058;2022-12-07T00:06:30;14.73;;;10.77;;
17424;SDS011;8830;50.978;5.058;2022-12-07T00:08:57;10.97;;;9.87;;
17424;SDS011;8830;50.978;5.058;2022-12-07T00:11:24;10.87;;;9.80;;
17424;SDS011;8830;50.978;5.058;2022-12-07T00:13:54;10.23;;;9.33;;
17424;SDS011;8830;50.978;5.058;2022-12-07T00:16:22;10.07;;;9.07;;
17424;SDS011;8830;50.978;5.058;2022-12-07T00:18:51;11.87;;;9.37;;
17424;SDS011;8830;50.978;5.058;2022-12-07T00:21:19;11.17;;;9.53;;
17424;SDS011;8830;50.978;5.058;2022-12-07T00:23:51;10.80;;;9.80;;
17424;SDS011;8830;50.978;5.058;2022-12-07T00:26:20;12.73;;;10.27;;
17424;SDS011;8830;50.978;5.058;2022-12-07T00:28:54;13.20;;;9.53;;
17424;SDS011;8830;50.978;5.058;2022-12-07T00:31:23;10.77;;;9.87;;
17424;SDS011;8830;50.978;5.058;2022-12-07T00:33:52;10.07;;;9.07;;
17424;SDS011;8830;50.978;5.058;2022-12-07T00:36:20;10.30;;;9.20;;
17424;SDS011;8830;50.978;5.058;2022-12-07T00:38:50;10.90;;;9.73;;
17424;SDS011;8830;50.978;5.058;2022-12-07T00:41:17;10.03;;;9.13;;
17424;SDS011;8830;50.978;5.058;2022-12-07T00:43:48;11.43;;;9.73;;
17424;SDS011;8830;50.978;5.058;2022-12-07T00:46:23;10.93;;;9.93;;
17424;SDS011;8830;50.978;5.058;2022-12-07T00:48:53;10.60;;;9.47;;
17424;SDS011;8830;50.978;5.058;2022-12-07T00:51:21;11.80;;;10.13;;
17424;SDS011;8830;50.978;5.058;2022-12-07T00:53:53;12.00;;;10.13;;
17424;SDS011;8830;50.978;5.058;2022-12-07T00:56:22;12.83;;;10.30;;
17424;SDS011;8830;50.978;5.058;2022-12-07T00:58:51;13.77;;;9.93;;
17424;SDS011;8830;50.978;5.058;2022-12-07T01:01:19;11.37;;;9.90;;
17424;SDS011;8830;50.978;5.058;2022-12-07T01:03:48;10.13;;;9.13;;
17424;SDS011;8830;50.978;5.058;2022-12-07T01:06:16;10.53;;;9.33;;
17424;SDS011;8830;50.978;5.058;2022-12-07T01:08:44;9.97;;;8.97;;
17424;SDS011;8830;50.978;5.058;2022-12-07T01:11:14;10.50;;;8.90;;
17424;SDS011;8830;50.978;5.058;2022-12-07T01:13:45;11.60;;;8.83;;
17424;SDS011;8830;50.978;5.058;2022-12-07T01:16:15;10.40;;;9.27;;
17424;SDS011;8830;50.978;5.058;2022-12-07T01:21:18;10.57;;;9.47;;
17424;SDS011;8830;50.978;5.058;2022-12-07T01:23:47;11.93;;;9.77;;
17424;SDS011;8830;50.978;5.058;2022-12-07T01:26:15;10.77;;;9.87;;
17424;SDS011;8830;50.978;5.058;2022-12-07T01:28:44;11.70;;;10.47;;
17424;SDS011;8830;50.978;5.058;2022-12-07T01:31:17;15.20;;;10.70;;
17424;SDS011;8830;50.978;5.058;2022-12-07T01:33:46;10.30;;;9.20;;
17424;SDS011;8830;50.978;5.058;2022-12-07T01:36:18;10.50;;;9.40;;
17424;SDS011;8830;50.978;5.058;2022-12-07T01:38:48;15.30;;;10.30;;
17424;SDS011;8830;50.978;5.058;2022-12-07T01:41:17;12.63;;;10.03;;
17424;SDS011;8830;50.978;5.058;2022-12-07T01:46:36;11.03;;;9.93;;
17424;SDS011;8830;50.978;5.058;2022-12-07T01:49:04;14.20;;;10.83;;
17424;SDS011;8830;50.978;5.058;2022-12-07T01:51:36;14.13;;;10.00;;
17424;SDS011;8830;50.978;5.058;2022-12-07T01:54:05;10.87;;;9.63;;
17424;SDS011;8830;50.978;5.058;2022-12-07T01:56:33;11.40;;;10.20;;
17424;SDS011;8830;50.978;5.058;2022-12-07T01:59:01;12.47;;;10.83;;
17424;SDS011;8830;50.978;5.058;2022-12-07T02:01:28;12.13;;;11.03;;
17424;SDS011;8830;50.978;5.058;2022-12-07T02:03:55;12.43;;;11.10;;
17424;SDS011;8830;50.978;5.058;2022-12-07T02:06:24;11.83;;;10.20;;
17424;SDS011;8830;50.978;5.058;2022-12-07T02:08:54;11.97;;;10.97;;
17424;SDS011;8830;50.978;5.058;2022-12-07T02:11:21;15.37;;;11.40;;
17424;SDS011;8830;50.978;5.058;2022-12-07T02:13:52;13.13;;;11.27;;
17424;SDS011;8830;50.978;5.058;2022-12-07T02:16:26;13.80;;;11.40;;
17424;SDS011;8830;50.978;5.058;2022-12-07T02:19:04;17.17;;;11.10;;
17424;SDS011;8830;50.978;5.058;2022-12-07T02:22:07;11.37;;;10.27;;
17424;SDS011;8830;50.978;5.058;2022-12-07T02:24:51;13.33;;;11.13;;
17424;SDS011;8830;50.978;5.058;2022-12-07T02:27:36;18.70;;;12.00;;
17424;SDS011;8830;50.978;5.058;2022-12-07T02:30:08;13.90;;;11.67;;
17424;SDS011;8830;50.978;5.058;2022-12-07T02:32:40;13.43;;;11.70;;
17424;SDS011;8830;50.978;5.058;2022-12-07T02:35:15;16.47;;;12.87;;
17424;SDS011;8830;50.978;5.058;2022-12-07T02:37:48;14.43;;;12.53;;
17424;SDS011;8830;50.978;5.058;2022-12-07T02:40:27;18.77;;;12.90;;
17424;SDS011;8830;50.978;5.058;2022-12-07T02:42:59;15.17;;;12.90;;
17424;SDS011;8830;50.978;5.058;2022-12-07T02:45:33;14.83;;;13.27;;
17424;SDS011;8830;50.978;5.058;2022-12-07T02:48:02;14.50;;;13.07;;
17424;SDS011;8830;50.978;5.058;2022-12-07T02:50:34;15.17;;;12.37;;
17424;SDS011;8830;50.978;5.058;2022-12-07T02:53:01;15.33;;;13.73;;
17424;SDS011;8830;50.978;5.058;2022-12-07T02:55:29;15.70;;;13.23;;
17424;SDS011;8830;50.978;5.058;2022-12-07T02:58:10;19.37;;;12.77;;
17424;SDS011;8830;50.978;5.058;2022-12-07T03:00:54;15.80;;;12.50;;
17424;SDS011;8830;50.978;5.058;2022-12-07T03:03:31;13.70;;;12.30;;
17424;SDS011;8830;50.978;5.058;2022-12-07T03:06:04;15.47;;;13.03;;
17424;SDS011;8830;50.978;5.058;2022-12-07T03:08:38;14.73;;;13.23;;
17424;SDS011;8830;50.978;5.058;2022-12-07T03:11:21;17.10;;;13.27;;
17424;SDS011;8830;50.978;5.058;2022-12-07T03:13:54;15.67;;;13.07;;
17424;SDS011;8830;50.978;5.058;2022-12-07T03:16:31;15.77;;;12.90;;
17424;SDS011;8830;50.978;5.058;2022-12-07T03:19:02;14.17;;;12.73;;
17424;SDS011;8830;50.978;5.058;2022-12-07T03:21:33;16.07;;;13.20;;
17424;SDS011;8830;50.978;5.058;2022-12-07T03:24:04;14.17;;;12.77;;
17424;SDS011;8830;50.978;5.058;2022-12-07T03:26:36;14.70;;;13.10;;
17424;SDS011;8830;50.978;5.058;2022-12-07T03:29:12;13.20;;;11.87;;
17424;SDS011;8830;50.978;5.058;2022-12-07T03:31:44;15.30;;;11.77;;
17424;SDS011;8830;50.978;5.058;2022-12-07T03:34:16;15.73;;;12.37;;
17424;SDS011;8830;50.978;5.058;2022-12-07T03:36:48;17.30;;;13.33;;
17424;SDS011;8830;50.978;5.058;2022-12-07T03:39:21;19.57;;;12.60;;
17424;SDS011;8830;50.978;5.058;2022-12-07T03:41:54;14.50;;;11.63;;
17424;SDS011;8830;50.978;5.058;2022-12-07T03:44:22;14.63;;;12.07;;
17424;SDS011;8830;50.978;5.058;2022-12-07T03:46:55;17.87;;;12.63;;
17424;SDS011;8830;50.978;5.058;2022-12-07T03:49:31;13.33;;;12.13;;
17424;SDS011;8830;50.978;5.058;2022-12-07T03:52:08;19.53;;;12.33;;
17424;SDS011;8830;50.978;5.058;2022-12-07T03:54:44;15.57;;;12.00;;
17424;SDS011;8830;50.978;5.058;2022-12-07T03:57:16;13.90;;;11.63;;
17424;SDS011;8830;50.978;5.058;2022-12-07T03:59:51;14.00;;;12.57;;
17424;SDS011;8830;50.978;5.058;2022-12-07T04:02:21;15.07;;;11.67;;
17424;SDS011;8830;50.978;5.058;2022-12-07T04:04:51;13.80;;;12.37;;
17424;SDS011;8830;50.978;5.058;2022-12-07T04:07:19;14.63;;;12.03;;
17424;SDS011;8830;50.978;5.058;2022-12-07T04:09:47;17.00;;;12.50;;
17424;SDS011;8830;50.978;5.058;2022-12-07T04:12:14;16.13;;;11.83;;
17424;SDS011;8830;50.978;5.058;2022-12-07T04:14:42;16.53;;;12.63;;
17424;SDS011;8830;50.978;5.058;2022-12-07T04:17:10;13.73;;;12.30;;
17424;SDS011;8830;50.978;5.058;2022-12-07T04:19:40;15.67;;;12.53;;
17424;SDS011;8830;50.978;5.058;2022-12-07T04:22:08;13.80;;;12.07;;
17424;SDS011;8830;50.978;5.058;2022-12-07T04:24:35;13.70;;;12.30;;
17424;SDS011;8830;50.978;5.058;2022-12-07T04:27:03;21.20;;;14.57;;
17424;SDS011;8830;50.978;5.058;2022-12-07T04:29:30;17.27;;;14.40;;
17424;SDS011;8830;50.978;5.058;2022-12-07T04:31:58;18.53;;;13.23;;
17424;SDS011;8830;50.978;5.058;2022-12-07T04:34:25;14.50;;;13.00;;
17424;SDS011;8830;50.978;5.058;2022-12-07T04:36:55;13.90;;;12.40;;
17424;SDS011;8830;50.978;5.058;2022-12-07T04:39:23;16.53;;;13.70;;
17424;SDS011;8830;50.978;5.058;2022-12-07T04:41:51;15.80;;;12.37;;
17424;SDS011;8830;50.978;5.058;2022-12-07T04:44:21;19.03;;;13.60;;
17424;SDS011;8830;50.978;5.058;2022-12-07T04:46:51;16.10;;;12.50;;
17424;SDS011;8830;50.978;5.058;2022-12-07T04:49:22;14.10;;;12.10;;
17424;SDS011;8830;50.978;5.058;2022-12-07T04:51:53;12.83;;;11.63;;
17424;SDS011;8830;50.978;5.058;2022-12-07T04:54:23;13.27;;;11.70;;
17424;SDS011;8830;50.978;5.058;2022-12-07T04:56:50;13.97;;;11.90;;
17424;SDS011;8830;50.978;5.058;2022-12-07T04:59:18;14.50;;;12.10;;
17424;SDS011;8830;50.978;5.058;2022-12-07T05:01:45;14.90;;;11.63;;
17424;SDS011;8830;50.978;5.058;2022-12-07T05:04:13;15.73;;;12.43;;
17424;SDS011;8830;50.978;5.058;2022-12-07T05:06:41;14.10;;;11.53;;
17424;SDS011;8830;50.978;5.058;2022-12-07T05:09:09;12.53;;;11.23;;
17424;SDS011;8830;50.978;5.058;2022-12-07T05:11:37;15.67;;;10.87;;
17424;SDS011;8830;50.978;5.058;2022-12-07T05:14:07;15.23;;;12.10;;
17424;SDS011;8830;50.978;5.058;2022-12-07T05:16:36;17.13;;;11.73;;
17424;SDS011;8830;50.978;5.058;2022-12-07T05:19:04;11.73;;;10.53;;
17424;SDS011;8830;50.978;5.058;2022-12-07T05:21:32;15.20;;;11.97;;
17424;SDS011;8830;50.978;5.058;2022-12-07T05:23:59;12.60;;;11.23;;
17424;SDS011;8830;50.978;5.058;2022-12-07T05:26:28;13.67;;;10.97;;
17424;SDS011;8830;50.978;5.058;2022-12-07T05:28:55;17.70;;;11.97;;
17424;SDS011;8830;50.978;5.058;2022-12-07T05:31:24;16.47;;;12.37;;
17424;SDS011;8830;50.978;5.058;2022-12-07T05:33:53;16.97;;;11.73;;
17424;SDS011;8830;50.978;5.058;2022-12-07T05:36:20;15.10;;;13.50;;
17424;SDS011;8830;50.978;5.058;2022-12-07T05:38:48;15.43;;;12.30;;
17424;SDS011;8830;50.978;5.058;2022-12-07T05:41:17;16.33;;;13.27;;
17424;SDS011;8830;50.978;5.058;2022-12-07T05:44:06;13.47;;;11.93;;
17424;SDS011;8830;50.978;5.058;2022-12-07T05:46:33;15.63;;;13.17;;
17424;SDS011;8830;50.978;5.058;2022-12-07T05:51:30;18.73;;;14.13;;
17424;SDS011;8830;50.978;5.058;2022-12-07T05:53:58;16.90;;;14.30;;
17424;SDS011;8830;50.978;5.058;2022-12-07T05:56:30;18.83;;;14.00;;
17424;SDS011;8830;50.978;5.058;2022-12-07T05:58:57;17.33;;;13.53;;
17424;SDS011;8830;50.978;5.058;2022-12-07T06:01:43;16.57;;;12.93;;
17424;SDS011;8830;50.978;5.058;2022-12-07T06:04:14;16.93;;;12.30;;
17424;SDS011;8830;50.978;5.058;2022-12-07T06:06:43;15.63;;;12.70;;
17424;SDS011;8830;50.978;5.058;2022-12-07T06:09:12;14.80;;;11.77;;
17424;SDS011;8830;50.978;5.058;2022-12-07T06:11:41;13.53;;;12.13;;
17424;SDS011;8830;50.978;5.058;2022-12-07T06:14:26;12.17;;;10.97;;
17424;SDS011;8830;50.978;5.058;2022-12-07T06:16:56;12.70;;;11.03;;
17424;SDS011;8830;50.978;5.058;2022-12-07T06:19:24;16.07;;;10.90;;
17424;SDS011;8830;50.978;5.058;2022-12-07T06:21:51;16.03;;;10.33;;
17424;SDS011;8830;50.978;5.058;2022-12-07T06:24:19;12.20;;;10.87;;
17424;SDS011;8830;50.978;5.058;2022-12-07T06:26:49;11.77;;;10.37;;
17424;SDS011;8830;50.978;5.058;2022-12-07T06:29:16;11.23;;;10.07;;
17424;SDS011;8830;50.978;5.058;2022-12-07T06:31:44;12.20;;;10.77;;
17424;SDS011;8830;50.978;5.058;2022-12-07T06:34:13;14.90;;;9.73;;
17424;SDS011;8830;50.978;5.058;2022-12-07T06:36:43;16.13;;;10.77;;
17424;SDS011;8830;50.978;5.058;2022-12-07T06:39:12;14.27;;;10.37;;
17424;SDS011;8830;50.978;5.058;2022-12-07T06:41:40;12.07;;;10.80;;
17424;SDS011;8830;50.978;5.058;2022-12-07T06:44:09;13.67;;;9.67;;
17424;SDS011;8830;50.978;5.058;2022-12-07T06:46:38;13.67;;;10.23;;
17424;SDS011;8830;50.978;5.058;2022-12-07T06:49:06;11.17;;;9.70;;
17424;SDS011;8830;50.978;5.058;2022-12-07T06:51:34;11.83;;;10.03;;
17424;SDS011;8830;50.978;5.058;2022-12-07T06:54:06;10.97;;;9.40;;
17424;SDS011;8830;50.978;5.058;2022-12-07T06:56:33;13.20;;;9.80;;
17424;SDS011;8830;50.978;5.058;2022-12-07T06:59:00;11.13;;;9.57;;
17424;SDS011;8830;50.978;5.058;2022-12-07T07:01:27;10.83;;;9.70;;
17424;SDS011;8830;50.978;5.058;2022-12-07T07:03:54;13.43;;;11.10;;
17424;SDS011;8830;50.978;5.058;2022-12-07T07:06:23;16.20;;;11.80;;
17424;SDS011;8830;50.978;5.058;2022-12-07T07:08:51;13.63;;;11.47;;
17424;SDS011;8830;50.978;5.058;2022-12-07T07:11:21;12.43;;;10.77;;
17424;SDS011;8830;50.978;5.058;2022-12-07T07:13:51;12.53;;;11.27;;
17424;SDS011;8830;50.978;5.058;2022-12-07T07:16:20;13.70;;;10.77;;
17424;SDS011;8830;50.978;5.058;2022-12-07T07:18:50;12.23;;;11.03;;
17424;SDS011;8830;50.978;5.058;2022-12-07T07:21:17;16.20;;;11.40;;
17424;SDS011;8830;50.978;5.058;2022-12-07T07:23:44;14.23;;;11.77;;
17424;SDS011;8830;50.978;5.058;2022-12-07T07:26:13;16.23;;;12.10;;
17424;SDS011;8830;50.978;5.058;2022-12-07T07:28:40;13.73;;;11.93;;
17424;SDS011;8830;50.978;5.058;2022-12-07T07:31:12;17.83;;;11.40;;
17424;SDS011;8830;50.978;5.058;2022-12-07T07:33:42;16.23;;;11.80;;
17424;SDS011;8830;50.978;5.058;2022-12-07T07:36:15;15.37;;;12.13;;
17424;SDS011;8830;50.978;5.058;2022-12-07T07:38:45;16.73;;;11.53;;
17424;SDS011;8830;50.978;5.058;2022-12-07T07:41:17;15.80;;;11.23;;
17424;SDS011;8830;50.978;5.058;2022-12-07T07:43:52;17.57;;;11.97;;
17424;SDS011;8830;50.978;5.058;2022-12-07T07:46:29;11.37;;;10.20;;
17424;SDS011;8830;50.978;5.058;2022-12-07T07:49:01;16.37;;;11.97;;
17424;SDS011;8830;50.978;5.058;2022-12-07T07:51:29;17.07;;;12.43;;
17424;SDS011;8830;50.978;5.058;2022-12-07T07:54:00;14.47;;;11.37;;
17424;SDS011;8830;50.978;5.058;2022-12-07T07:56:49;15.17;;;12.27;;
17424;SDS011;8830;50.978;5.058;2022-12-07T07:59:34;15.93;;;11.77;;
17424;SDS011;8830;50.978;5.058;2022-12-07T08:02:31;17.23;;;12.40;;
17424;SDS011;8830;50.978;5.058;2022-12-07T08:05:13;14.67;;;10.87;;
17424;SDS011;8830;50.978;5.058;2022-12-07T08:08:00;14.57;;;10.20;;
17424;SDS011;8830;50.978;5.058;2022-12-07T08:10:31;14.77;;;9.90;;
17424;SDS011;8830;50.978;5.058;2022-12-07T08:13:27;11.27;;;10.07;;
17424;SDS011;8830;50.978;5.058;2022-12-07T08:16:06;12.33;;;9.93;;
17424;SDS011;8830;50.978;5.058;2022-12-07T08:18:59;10.77;;;9.73;;
17424;SDS011;8830;50.978;5.058;2022-12-07T08:21:36;10.33;;;9.37;;
17424;SDS011;8830;50.978;5.058;2022-12-07T08:24:08;18.07;;;10.37;;
17424;SDS011;8830;50.978;5.058;2022-12-07T08:26:54;11.57;;;10.37;;
17424;SDS011;8830;50.978;5.058;2022-12-07T08:32:24;11.17;;;8.80;;
17424;SDS011;8830;50.978;5.058;2022-12-07T08:35:06;9.57;;;8.67;;
17424;SDS011;8830;50.978;5.058;2022-12-07T08:37:49;10.20;;;7.83;;
17424;SDS011;8830;50.978;5.058;2022-12-07T08:40:52;10.67;;;8.70;;
17424;SDS011;8830;50.978;5.058;2022-12-07T08:43:52;10.17;;;7.83;;
17424;SDS011;8830;50.978;5.058;2022-12-07T08:49:36;7.97;;;7.17;;
17424;SDS011;8830;50.978;5.058;2022-12-07T08:52:26;9.37;;;7.53;;
17424;SDS011;8830;50.978;5.058;2022-12-07T08:55:11;8.97;;;7.10;;
17424;SDS011;8830;50.978;5.058;2022-12-07T08:57:53;7.13;;;6.57;;
17424;SDS011;8830;50.978;5.058;2022-12-07T09:00:33;11.27;;;6.53;;
17424;SDS011;8830;50.978;5.058;2022-12-07T09:03:09;12.83;;;7.37;;
17424;SDS011;8830;50.978;5.058;2022-12-07T09:08:59;10.67;;;6.37;;
17424;SDS011;8830;50.978;5.058;2022-12-07T09:11:39;12.97;;;6.47;;
17424;SDS011;8830;50.978;5.058;2022-12-07T09:14:12;11.67;;;6.10;;
17424;SDS011;8830;50.978;5.058;2022-12-07T09:16:44;10.13;;;6.10;;
17424;SDS011;8830;50.978;5.058;2022-12-07T09:19:27;8.57;;;5.70;;
17424;SDS011;8830;50.978;5.058;2022-12-07T09:25:03;11.83;;;6.23;;
17424;SDS011;8830;50.978;5.058;2022-12-07T09:27:39;9.63;;;5.50;;
17424;SDS011;8830;50.978;5.058;2022-12-07T09:30:11;7.33;;;5.60;;
17424;SDS011;8830;50.978;5.058;2022-12-07T09:32:57;8.97;;;5.87;;
17424;SDS011;8830;50.978;5.058;2022-12-07T09:35:46;7.87;;;5.83;;
17424;SDS011;8830;50.978;5.058;2022-12-07T09:42:03;9.20;;;5.13;;
17424;SDS011;8830;50.978;5.058;2022-12-07T09:44:41;12.10;;;6.00;;
17424;SDS011;8830;50.978;5.058;2022-12-07T09:47:31;11.23;;;6.13;;
17424;SDS011;8830;50.978;5.058;2022-12-07T09:50:38;7.70;;;5.20;;
17424;SDS011;8830;50.978;5.058;2022-12-07T09:53:24;5.93;;;5.33;;
17424;SDS011;8830;50.978;5.058;2022-12-07T09:56:17;10.13;;;4.73;;
17424;SDS011;8830;50.978;5.058;2022-12-07T09:58:59;7.97;;;4.23;;
17424;SDS011;8830;50.978;5.058;2022-12-07T10:01:41;7.53;;;4.40;;
17424;SDS011;8830;50.978;5.058;2022-12-07T10:04:23;7.13;;;4.73;;
17424;SDS011;8830;50.978;5.058;2022-12-07T10:07:29;8.47;;;4.37;;
17424;SDS011;8830;50.978;5.058;2022-12-07T10:10:04;8.60;;;4.30;;
17424;SDS011;8830;50.978;5.058;2022-12-07T10:13:09;8.93;;;4.73;;
17424;SDS011;8830;50.978;5.058;2022-12-07T10:15:48;7.77;;;4.07;;
17424;SDS011;8830;50.978;5.058;2022-12-07T10:18:40;5.97;;;4.40;;
17424;SDS011;8830;50.978;5.058;2022-12-07T10:21:29;8.07;;;4.90;;
17424;SDS011;8830;50.978;5.058;2022-12-07T10:24:13;5.03;;;4.03;;
17424;SDS011;8830;50.978;5.058;2022-12-07T10:27:18;12.43;;;7.73;;
17424;SDS011;8830;50.978;5.058;2022-12-07T10:30:27;11.67;;;5.37;;
17424;SDS011;8830;50.978;5.058;2022-12-07T10:33:08;7.67;;;5.13;;
17424;SDS011;8830;50.978;5.058;2022-12-07T10:36:19;7.53;;;4.60;;
17424;SDS011;8830;50.978;5.058;2022-12-07T10:39:10;6.80;;;5.47;;
17424;SDS011;8830;50.978;5.058;2022-12-07T10:41:56;11.23;;;5.60;;
17424;SDS011;8830;50.978;5.058;2022-12-07T10:44:34;6.33;;;5.07;;
17424;SDS011;8830;50.978;5.058;2022-12-07T10:47:29;8.53;;;5.50;;
17424;SDS011;8830;50.978;5.058;2022-12-07T10:50:14;7.37;;;5.57;;
17424;SDS011;8830;50.978;5.058;2022-12-07T10:56:39;8.30;;;5.10;;
17424;SDS011;8830;50.978;5.058;2022-12-07T11:06:07;7.27;;;5.40;;
17424;SDS011;8830;50.978;5.058;2022-12-07T11:09:02;13.73;;;4.97;;
17424;SDS011;8830;50.978;5.058;2022-12-07T11:12:20;8.37;;;4.77;;
17424;SDS011;8830;50.978;5.058;2022-12-07T11:15:12;7.87;;;4.60;;
17424;SDS011;8830;50.978;5.058;2022-12-07T11:18:14;12.10;;;5.83;;
17424;SDS011;8830;50.978;5.058;2022-12-07T11:23:52;7.13;;;3.90;;
17424;SDS011;8830;50.978;5.058;2022-12-07T11:26:41;5.93;;;3.93;;
17424;SDS011;8830;50.978;5.058;2022-12-07T11:29:46;8.70;;;4.13;;
17424;SDS011;8830;50.978;5.058;2022-12-07T11:32:38;7.07;;;3.90;;
17424;SDS011;8830;50.978;5.058;2022-12-07T11:36:00;7.13;;;3.80;;
17424;SDS011;8830;50.978;5.058;2022-12-07T11:39:01;6.67;;;3.10;;
17424;SDS011;8830;50.978;5.058;2022-12-07T11:42:04;4.97;;;3.30;;
17424;SDS011;8830;50.978;5.058;2022-12-07T11:48:01;3.17;;;2.77;;
17424;SDS011;8830;50.978;5.058;2022-12-07T11:50:58;7.27;;;4.20;;
17424;SDS011;8830;50.978;5.058;2022-12-07T11:54:14;7.50;;;4.03;;
17424;SDS011;8830;50.978;5.058;2022-12-07T11:56:56;9.73;;;4.73;;
17424;SDS011;8830;50.978;5.058;2022-12-07T11:59:45;5.33;;;3.30;;
17424;SDS011;8830;50.978;5.058;2022-12-07T12:02:31;5.77;;;3.20;;
17424;SDS011;8830;50.978;5.058;2022-12-07T12:05:29;6.00;;;2.97;;
17424;SDS011;8830;50.978;5.058;2022-12-07T12:08:27;6.17;;;3.10;;
17424;SDS011;8830;50.978;5.058;2022-12-07T12:11:30;9.73;;;3.87;;
17424;SDS011;8830;50.978;5.058;2022-12-07T12:14:37;5.37;;;3.07;;
17424;SDS011;8830;50.978;5.058;2022-12-07T12:20:26;6.17;;;3.03;;
17424;SDS011;8830;50.978;5.058;2022-12-07T12:23:29;4.23;;;3.03;;
17424;SDS011;8830;50.978;5.058;2022-12-07T12:26:17;6.37;;;3.10;;
17424;SDS011;8830;50.978;5.058;2022-12-07T12:35:21;4.27;;;2.87;;
17424;SDS011;8830;50.978;5.058;2022-12-07T12:48:40;4.60;;;2.07;;
17424;SDS011;8830;50.978;5.058;2022-12-07T12:54:38;2.87;;;1.73;;
17424;SDS011;8830;50.978;5.058;2022-12-07T12:57:53;3.87;;;1.93;;
17424;SDS011;8830;50.978;5.058;2022-12-07T13:08:13;3.57;;;2.30;;
17424;SDS011;8830;50.978;5.058;2022-12-07T13:10:59;4.57;;;2.40;;
17424;SDS011;8830;50.978;5.058;2022-12-07T13:27:21;4.03;;;2.90;;
17424;SDS011;8830;50.978;5.058;2022-12-07T13:29:57;8.70;;;3.27;;
17424;SDS011;8830;50.978;5.058;2022-12-07T13:32:39;5.20;;;3.40;;
17424;SDS011;8830;50.978;5.058;2022-12-07T13:35:30;8.77;;;3.60;;
17424;SDS011;8830;50.978;5.058;2022-12-07T13:41:12;6.10;;;3.27;;
17424;SDS011;8830;50.978;5.058;2022-12-07T13:43:59;5.53;;;4.47;;
17424;SDS011;8830;50.978;5.058;2022-12-07T13:46:49;6.30;;;3.33;;
17424;SDS011;8830;50.978;5.058;2022-12-07T13:49:46;5.87;;;3.70;;
17424;SDS011;8830;50.978;5.058;2022-12-07T13:55:34;5.03;;;3.80;;
17424;SDS011;8830;50.978;5.058;2022-12-07T13:58:46;5.47;;;3.07;;
17424;SDS011;8830;50.978;5.058;2022-12-07T14:01:56;6.83;;;3.07;;
17424;SDS011;8830;50.978;5.058;2022-12-07T14:04:41;4.13;;;3.03;;
17424;SDS011;8830;50.978;5.058;2022-12-07T14:12:59;5.63;;;3.37;;
17424;SDS011;8830;50.978;5.058;2022-12-07T14:15:38;4.63;;;3.23;;
17424;SDS011;8830;50.978;5.058;2022-12-07T14:21:02;5.80;;;3.40;;
17424;SDS011;8830;50.978;5.058;2022-12-07T14:23:36;5.30;;;3.67;;
17424;SDS011;8830;50.978;5.058;2022-12-07T14:26:07;4.53;;;3.00;;
17424;SDS011;8830;50.978;5.058;2022-12-07T14:28:38;4.83;;;3.53;;
17424;SDS011;8830;50.978;5.058;2022-12-07T14:31:11;5.57;;;3.70;;
17424;SDS011;8830;50.978;5.058;2022-12-07T14:33:43;7.47;;;3.77;;
17424;SDS011;8830;50.978;5.058;2022-12-07T14:36:15;5.77;;;3.93;;
17424;SDS011;8830;50.978;5.058;2022-12-07T14:38:49;5.67;;;3.53;;
17424;SDS011;8830;50.978;5.058;2022-12-07T14:41:22;13.97;;;4.20;;
17424;SDS011;8830;50.978;5.058;2022-12-07T14:44:08;4.13;;;3.57;;
17424;SDS011;8830;50.978;5.058;2022-12-07T14:46:49;5.57;;;4.30;;
17424;SDS011;8830;50.978;5.058;2022-12-07T14:49:22;6.20;;;3.87;;
17424;SDS011;8830;50.978;5.058;2022-12-07T14:52:02;6.77;;;3.73;;
17424;SDS011;8830;50.978;5.058;2022-12-07T14:54:32;6.30;;;4.40;;
17424;SDS011;8830;50.978;5.058;2022-12-07T14:57:12;7.13;;;4.47;;
17424;SDS011;8830;50.978;5.058;2022-12-07T15:00:13;5.40;;;4.43;;
17424;SDS011;8830;50.978;5.058;2022-12-07T15:02:56;4.30;;;3.77;;
17424;SDS011;8830;50.978;5.058;2022-12-07T15:05:25;4.47;;;3.47;;
17424;SDS011;8830;50.978;5.058;2022-12-07T15:07:57;5.63;;;4.23;;
17424;SDS011;8830;50.978;5.058;2022-12-07T15:10:31;4.20;;;2.60;;
17424;SDS011;8830;50.978;5.058;2022-12-07T15:15:54;2.50;;;2.30;;
17424;SDS011;8830;50.978;5.058;2022-12-07T15:18:35;3.60;;;2.47;;
17424;SDS011;8830;50.978;5.058;2022-12-07T15:21:12;2.73;;;2.23;;
17424;SDS011;8830;50.978;5.058;2022-12-07T15:23:44;4.17;;;3.57;;
17424;SDS011;8830;50.978;5.058;2022-12-07T15:26:28;3.80;;;2.73;;
17424;SDS011;8830;50.978;5.058;2022-12-07T15:28:57;3.37;;;2.90;;
17424;SDS011;8830;50.978;5.058;2022-12-07T15:31:25;5.10;;;3.27;;
17424;SDS011;8830;50.978;5.058;2022-12-07T15:33:59;5.10;;;2.23;;
17424;SDS011;8830;50.978;5.058;2022-12-07T15:36:27;2.67;;;2.47;;
17424;SDS011;8830;50.978;5.058;2022-12-07T15:38:55;4.13;;;3.67;;
17424;SDS011;8830;50.978;5.058;2022-12-07T15:41:22;4.27;;;2.30;;
17424;SDS011;8830;50.978;5.058;2022-12-07T15:43:51;2.43;;;2.23;;
17424;SDS011;8830;50.978;5.058;2022-12-07T15:46:37;5.43;;;2.67;;
17424;SDS011;8830;50.978;5.058;2022-12-07T15:49:08;3.70;;;2.90;;
17424;SDS011;8830;50.978;5.058;2022-12-07T15:51:41;3.50;;;2.97;;
17424;SDS011;8830;50.978;5.058;2022-12-07T15:54:11;4.20;;;3.80;;
17424;SDS011;8830;50.978;5.058;2022-12-07T15:56:45;4.27;;;3.00;;
17424;SDS011;8830;50.978;5.058;2022-12-07T15:59:12;4.77;;;3.50;;
17424;SDS011;8830;50.978;5.058;2022-12-07T16:01:39;6.20;;;4.17;;
17424;SDS011;8830;50.978;5.058;2022-12-07T16:04:09;5.13;;;4.10;;
17424;SDS011;8830;50.978;5.058;2022-12-07T16:06:40;4.43;;;3.87;;
17424;SDS011;8830;50.978;5.058;2022-12-07T16:09:08;6.30;;;5.27;;
17424;SDS011;8830;50.978;5.058;2022-12-07T16:11:36;8.37;;;6.20;;
17424;SDS011;8830;50.978;5.058;2022-12-07T16:14:04;10.80;;;6.07;;
17424;SDS011;8830;50.978;5.058;2022-12-07T16:16:33;6.10;;;4.70;;
17424;SDS011;8830;50.978;5.058;2022-12-07T16:19:01;5.43;;;4.93;;
17424;SDS011;8830;50.978;5.058;2022-12-07T16:21:35;8.63;;;7.57;;
17424;SDS011;8830;50.978;5.058;2022-12-07T16:24:06;6.30;;;4.83;;
17424;SDS011;8830;50.978;5.058;2022-12-07T16:26:35;7.17;;;5.30;;
17424;SDS011;8830;50.978;5.058;2022-12-07T16:29:02;4.97;;;4.53;;
17424;SDS011;8830;50.978;5.058;2022-12-07T16:31:31;5.80;;;5.20;;
17424;SDS011;8830;50.978;5.058;2022-12-07T16:33:59;6.27;;;4.60;;
17424;SDS011;8830;50.978;5.058;2022-12-07T16:36:26;8.50;;;5.43;;
17424;SDS011;8830;50.978;5.058;2022-12-07T16:38:55;9.47;;;5.90;;
17424;SDS011;8830;50.978;5.058;2022-12-07T16:41:25;7.17;;;6.50;;
17424;SDS011;8830;50.978;5.058;2022-12-07T16:43:55;7.30;;;5.70;;
17424;SDS011;8830;50.978;5.058;2022-12-07T16:46:23;5.67;;;5.10;;
17424;SDS011;8830;50.978;5.058;2022-12-07T16:48:53;11.40;;;5.70;;
17424;SDS011;8830;50.978;5.058;2022-12-07T16:51:21;5.97;;;5.20;;
17424;SDS011;8830;50.978;5.058;2022-12-07T16:53:50;7.13;;;6.13;;
17424;SDS011;8830;50.978;5.058;2022-12-07T16:56:21;6.50;;;5.20;;
17424;SDS011;8830;50.978;5.058;2022-12-07T16:58:48;5.90;;;5.30;;
17424;SDS011;8830;50.978;5.058;2022-12-07T17:01:16;5.83;;;4.93;;
17424;SDS011;8830;50.978;5.058;2022-12-07T17:03:46;5.00;;;4.50;;
17424;SDS011;8830;50.978;5.058;2022-12-07T17:06:14;7.70;;;5.13;;
17424;SDS011;8830;50.978;5.058;2022-12-07T17:08:43;5.47;;;5.00;;
17424;SDS011;8830;50.978;5.058;2022-12-07T17:11:11;6.23;;;5.63;;
17424;SDS011;8830;50.978;5.058;2022-12-07T17:13:42;6.17;;;5.50;;
17424;SDS011;8830;50.978;5.058;2022-12-07T17:16:30;6.73;;;6.07;;
17424;SDS011;8830;50.978;5.058;2022-12-07T17:19:03;6.33;;;5.73;;
17424;SDS011;8830;50.978;5.058;2022-12-07T17:21:35;6.90;;;6.20;;
17424;SDS011;8830;50.978;5.058;2022-12-07T17:24:03;7.90;;;6.40;;